Terminal Aerodrome Forecast
Issued by NWS Twin Cities, MN

Home | Current Version | Previous Version | Graphics & Text | Print | Product List | Glossary On
Versions: 1 2 3 4 5 6 7 8 9 10 11 12 13 14 15 16 17 18 19 20 21 22 23 24 25 26 27
901
FTUS43 KMPX 071723
TAFMSP
TAF
KMSP 071723Z 0718/0824 28018G28KT P6SM SCT025 BKN035
     FM072100 29020G30KT 6SM -SHSN BLSN OVC020
     FM072300 30022G34KT 3SM -SHSN BLSN OVC015
      TEMPO 0723/0803 2SM -SHSN BLSN OVC012
     FM081400 33022G32KT 3SM BLSN OVC020
     FM082100 32014G24KT 6SM BLSN SCT020=

USA.gov is the U.S. government's official web portal to all federal, state and local government web resources and services.